Date,TemperatureHighF,TemperatureAvgF,TemperatureLowF,DewpointHighF,DewpointAvgF,DewpointLowF,HumidityHigh,HumidityAvg,HumidityLow,PressureMaxIn,PressureMinIn,WindSpeedMaxMPH,WindSpeedAvgMPH,GustSpeedMaxMPH,PrecipitationSumIn
2013-1-1,38.9,34.9,30.8,36.2,32.7,29.0,94,92,86,30.51,30.36,7,2,8,0.01
2013-1-2,42.7,33.9,28.8,37.9,30.7,26.8,92,88,81,30.36,30.20,6,2,7,0.00
2013-1-3,40.9,33.5,26.6,36.6,30.2,24.7,94,88,76,30.20,30.09,10,2,11,0.02
2013-1-4,45.2,42.0,39.1,42.8,39.4,36.8,93,90,85,30.31,30.13,8,1,11,0.01
2013-1-5,45.0,42.1,38.9,41.1,39.1,36.1,94,89,83,30.18,30.06,15,3,18,0.17
2013-1-6,45.0,41.8,36.5,41.7,39.1,33.6,93,90,87,30.14,30.00,11,3,13,0.18
2013-1-7,48.6,48.6,48.6,45.2,45.1,44.9,88,88,87,29.92,29.91,12,8,12,0.00
2013-1-8,48.2,45.3,40.1,46.6,43.4,37.7,94,93,91,29.95,29.65,13,4,14,0.93
2013-1-9,46.3,41.5,34.2,44.6,38.2,31.2,94,88,83,29.92,29.65,13,3,13,0.04
2013-1-10,39.4,36.1,28.3,36.7,33.3,26.0,92,90,86,30.13,29.92,6,1,8,0.16
2013-1-11,36.0,30.1,25.9,28.4,24.5,21.7,92,80,63,30.32,30.13,10,2,10,0.00
2013-1-12,34.4,27.6,23.9,28.5,23.8,21.4,91,86,73,30.43,30.31,6,2,7,0.00
2013-1-13,36.7,29.8,23.2,33.5,26.7,20.7,93,88,84,30.48,30.42,4,1,6,0.01
2013-1-14,36.4,34.7,32.9,33.2,31.7,29.6,92,89,87,30.57,30.45,7,1,8,0.02
2013-1-15,41.2,36.1,31.7,38.1,33.4,29.7,94,90,84,30.72,30.57,4,1,4,0.00
2013-1-16,40.9,36.2,32.8,37.0,33.3,29.6,91,89,81,30.66,30.52,6,1,6,0.00
2013-1-17,43.2,34.5,29.2,39.0,31.6,26.9,92,89,84,30.53,30.28,5,2,6,0.01
2013-1-18,41.9,36.6,30.6,39.8,34.3,28.6,94,91,87,30.34,30.26,5,1,6,0.01
2013-1-19,41.4,37.4,34.9,38.5,35.0,32.5,93,91,87,30.39,30.34,10,2,10,0.00
2013-1-20,42.1,38.1,36.5,38.8,35.9,34.7,94,92,86,30.40,30.27,16,4,16,0.01
2013-1-21,42.5,36.5,33.1,38.3,34.0,31.0,94,91,82,30.27,30.13,9,2,11,0.00
2013-1-22,42.1,37.1,33.3,38.4,34.4,31.1,93,90,86,30.14,29.91,4,1,5,0.00
2013-1-23,44.6,40.6,37.1,42.5,38.2,34.3,93,91,89,30.10,29.81,7,2,7,0.25
2013-1-24,44.3,40.5,34.0,41.1,37.5,32.1,94,89,81,30.18,29.99,10,3,15,0.05
2013-1-25,49.1,41.7,35.6,45.9,38.8,33.5,94,90,80,30.04,29.88,12,2,12,0.02
2013-1-26,44.6,41.5,38.2,41.9,38.7,36.0,93,90,85,30.01,29.84,11,2,13,0.13
2013-1-27,41.2,39.3,34.9,39.6,37.4,33.0,95,93,92,30.02,29.96,6,2,7,0.30
2013-1-28,42.5,38.8,36.4,40.9,37.0,34.5,95,94,92,30.05,29.96,4,1,5,0.06
2013-1-29,45.4,41.9,38.0,43.5,40.3,36.4,95,94,93,30.30,30.04,7,1,8,0.09
2013-1-30,50.8,45.4,43.6,48.4,43.5,41.7,95,93,88,30.37,30.30,6,1,8,0.03
2013-1-31,47.7,44.9,39.6,45.9,43.1,37.7,95,93,93,30.36,30.29,10,2,13,0.06